createdAt,value
2022-10-10T00:01:18.449Z,1.60
2022-10-10T00:03:45.620Z,1.17
2022-10-10T00:06:13.720Z,1.45
2022-10-10T00:08:40.615Z,1.25
2022-10-10T00:11:08.066Z,1.27
2022-10-10T00:13:35.395Z,1.38
2022-10-10T00:16:02.267Z,1.67
2022-10-10T00:18:29.709Z,1.17
2022-10-10T00:20:56.475Z,1.27
2022-10-10T00:23:23.712Z,1.17
2022-10-10T00:25:51.210Z,1.10
2022-10-10T00:28:18.707Z,0.98
2022-10-10T00:30:45.806Z,1.40
2022-10-10T00:33:13.162Z,1.13
2022-10-10T00:35:40.482Z,1.13
2022-10-10T00:38:07.792Z,1.00
2022-10-10T00:40:35.003Z,1.20
2022-10-10T00:43:02.009Z,1.00
2022-10-10T00:45:39.989Z,1.00
2022-10-10T00:48:09.850Z,1.40
2022-10-10T00:50:41.469Z,1.35
2022-10-10T00:53:10.018Z,1.13
2022-10-10T00:55:37.754Z,0.85
2022-10-10T00:58:07.999Z,1.20
2022-10-10T01:00:35.177Z,1.10
2022-10-10T01:03:01.980Z,1.15
2022-10-10T01:05:29.371Z,1.13
2022-10-10T01:07:56.798Z,1.20
2022-10-10T01:10:24.784Z,1.00
2022-10-10T01:13:09.534Z,1.20
2022-10-10T01:15:57.336Z,0.82
2022-10-10T01:18:52.805Z,1.05
2022-10-10T01:21:24.034Z,1.05
2022-10-10T01:23:50.693Z,1.00
2022-10-10T01:26:55.026Z,1.02
2022-10-10T01:29:24.792Z,1.00
2022-10-10T01:31:55.955Z,1.65
2022-10-10T01:34:31.023Z,1.45
2022-10-10T01:37:16.638Z,1.13
2022-10-10T01:39:51.751Z,0.90
2022-10-10T01:42:41.107Z,1.30
2022-10-10T01:45:08.356Z,0.93
2022-10-10T01:47:35.226Z,1.38
2022-10-10T01:50:10.902Z,1.40
2022-10-10T01:53:02.204Z,1.20
2022-10-10T01:55:48.939Z,1.10
2022-10-10T01:58:27.590Z,1.08
2022-10-10T02:01:18.429Z,1.10
2022-10-10T02:03:50.517Z,1.38
2022-10-10T02:06:36.347Z,1.33
2022-10-10T02:09:11.707Z,1.20
2022-10-10T02:11:40.487Z,1.30
2022-10-10T02:14:22.184Z,1.15
2022-10-10T02:16:53.487Z,1.25
2022-10-10T02:19:22.695Z,1.20
2022-10-10T02:21:52.729Z,1.55
2022-10-10T02:24:23.013Z,1.20
2022-10-10T02:26:59.237Z,1.90
2022-10-10T02:29:38.510Z,1.20
2022-10-10T02:32:22.477Z,1.25
2022-10-10T02:34:55.042Z,1.10
2022-10-10T02:37:23.310Z,1.08
2022-10-10T02:39:56.584Z,1.42
2022-10-10T02:42:24.440Z,1.40
2022-10-10T02:44:51.584Z,1.40
2022-10-10T02:47:18.816Z,1.52
2022-10-10T02:49:45.934Z,1.20
2022-10-10T02:52:14.944Z,1.15
2022-10-10T02:54:42.112Z,1.00
2022-10-10T02:57:08.904Z,0.95
2022-10-10T02:59:36.059Z,1.25
2022-10-10T03:02:02.780Z,1.20
2022-10-10T03:04:29.509Z,1.25
2022-10-10T03:06:56.279Z,0.95
2022-10-10T03:09:23.052Z,1.35
2022-10-10T03:11:49.942Z,1.45
2022-10-10T03:14:16.685Z,1.60
2022-10-10T03:16:43.440Z,1.45
2022-10-10T03:19:11.996Z,1.13
2022-10-10T03:21:38.814Z,1.00
2022-10-10T03:24:05.849Z,1.35
2022-10-10T03:26:32.849Z,1.48
2022-10-10T03:29:01.236Z,1.38
2022-10-10T03:31:28.053Z,1.20
2022-10-10T03:33:54.808Z,1.30
2022-10-10T03:36:21.806Z,1.40
2022-10-10T03:38:48.557Z,1.15
2022-10-10T03:41:15.696Z,1.27
2022-10-10T03:43:42.474Z,1.60
2022-10-10T03:46:12.544Z,1.23
2022-10-10T03:48:42.783Z,1.05
2022-10-10T03:51:09.792Z,1.48
2022-10-10T03:53:37.214Z,1.15
2022-10-10T03:56:04.787Z,1.27
2022-10-10T03:58:31.763Z,1.30
2022-10-10T04:01:00.632Z,1.58
2022-10-10T04:03:28.368Z,1.38
2022-10-10T04:05:55.810Z,1.42
2022-10-10T04:08:22.868Z,1.63
2022-10-10T04:10:51.198Z,1.15
2022-10-10T04:13:18.915Z,1.30
2022-10-10T04:15:45.715Z,1.42
2022-10-10T04:18:12.477Z,1.58
2022-10-10T04:20:39.438Z,1.20
2022-10-10T04:23:06.194Z,1.63
2022-10-10T04:25:32.978Z,0.95
2022-10-10T04:28:01.233Z,1.50
2022-10-10T04:30:33.041Z,1.17
2022-10-10T04:33:00.302Z,1.60
2022-10-10T04:35:27.137Z,1.40
2022-10-10T04:37:53.973Z,1.52
2022-10-10T04:40:26.161Z,1.80
2022-10-10T04:42:53.824Z,2.00
2022-10-10T04:45:20.809Z,1.75
2022-10-10T04:47:47.560Z,2.17
2022-10-10T04:50:14.372Z,2.13
2022-10-10T04:52:41.069Z,1.75
2022-10-10T04:55:08.235Z,1.60
2022-10-10T04:57:35.039Z,1.60
2022-10-10T05:00:01.910Z,1.95
2022-10-10T05:02:28.663Z,2.00
2022-10-10T05:04:55.489Z,1.58
2022-10-10T05:07:22.311Z,2.17
2022-10-10T05:09:49.070Z,2.15
2022-10-10T05:12:16.200Z,1.75
2022-10-10T05:14:47.831Z,1.85
2022-10-10T05:17:15.392Z,1.90
2022-10-10T05:19:42.667Z,2.08
2022-10-10T05:22:09.611Z,1.75
2022-10-10T05:24:36.354Z,2.22
2022-10-10T05:27:03.174Z,2.17
2022-10-10T05:29:29.920Z,2.33
2022-10-10T05:31:56.765Z,1.98
2022-10-10T05:34:23.543Z,2.05
2022-10-10T05:36:50.381Z,2.33
2022-10-10T05:39:17.124Z,1.63
2022-10-10T05:41:43.869Z,1.67
2022-10-10T05:44:10.596Z,1.77
2022-10-10T05:46:37.373Z,1.73
2022-10-10T05:49:04.226Z,1.73
2022-10-10T05:51:31.070Z,2.15
2022-10-10T05:53:57.926Z,1.73
2022-10-10T05:56:25.132Z,2.00
2022-10-10T05:58:51.963Z,1.42
2022-10-10T06:01:18.817Z,1.70
2022-10-10T06:03:45.629Z,1.80
2022-10-10T06:06:12.386Z,1.40
2022-10-10T06:08:39.146Z,1.67
2022-10-10T06:11:11.300Z,1.67
2022-10-10T06:13:38.873Z,1.25
2022-10-10T06:16:05.754Z,1.33
2022-10-10T06:18:32.486Z,1.17
2022-10-10T06:21:05.473Z,1.10
2022-10-10T06:23:33.288Z,1.23
2022-10-10T06:26:00.253Z,1.30
2022-10-10T06:28:27.075Z,1.20
2022-10-10T06:30:53.912Z,1.25
2022-10-10T06:33:20.814Z,0.95
2022-10-10T06:35:49.279Z,1.42
2022-10-10T06:41:21.666Z,1.30
2022-10-10T06:43:49.496Z,0.90
2022-10-10T06:46:16.314Z,1.20
2022-10-10T06:48:43.179Z,1.13
2022-10-10T06:51:15.000Z,1.08
2022-10-10T06:53:43.036Z,0.90
2022-10-10T06:56:24.921Z,1.10
2022-10-10T06:58:54.232Z,1.00
2022-10-10T07:01:23.315Z,1.13
2022-10-10T07:03:50.224Z,0.82
2022-10-10T07:06:18.351Z,0.95
2022-10-10T07:08:45.195Z,0.70
2022-10-10T07:11:12.263Z,0.85
2022-10-10T07:13:39.172Z,0.85
2022-10-10T07:16:06.760Z,1.27
2022-10-10T07:18:35.560Z,1.25
2022-10-10T07:21:02.943Z,0.82
2022-10-10T07:23:31.616Z,1.10
2022-10-10T07:26:06.914Z,0.80
2022-10-10T07:28:33.988Z,0.82
2022-10-10T07:31:06.271Z,0.60
2022-10-10T07:33:38.670Z,0.70
2022-10-10T07:36:06.063Z,0.60
2022-10-10T07:38:33.706Z,1.00
2022-10-10T07:41:00.485Z,0.50
2022-10-10T07:43:27.298Z,0.65
2022-10-10T07:45:55.410Z,0.60
2022-10-10T07:48:22.624Z,0.43
2022-10-10T07:50:49.329Z,0.52
2022-10-10T07:53:16.125Z,0.65
2022-10-10T07:55:44.188Z,0.60
2022-10-10T07:58:11.954Z,0.80
2022-10-10T08:00:42.905Z,1.08
2022-10-10T08:03:12.200Z,0.50
2022-10-10T08:05:41.255Z,0.57
2022-10-10T08:08:08.211Z,0.50
2022-10-10T08:10:35.145Z,0.45
2022-10-10T08:13:02.425Z,0.60
2022-10-10T08:15:33.087Z,0.57
2022-10-10T08:18:00.833Z,0.70
2022-10-10T08:20:27.657Z,0.50
2022-10-10T08:22:54.461Z,0.43
2022-10-10T08:25:21.303Z,0.60
2022-10-10T08:27:48.308Z,0.65
2022-10-10T08:30:15.143Z,0.40
2022-10-10T08:32:41.962Z,0.50
2022-10-10T08:35:08.871Z,0.45
2022-10-10T08:37:37.522Z,0.60
2022-10-10T08:40:04.963Z,0.68
2022-10-10T08:42:42.075Z,0.50
2022-10-10T08:45:18.638Z,0.65
2022-10-10T08:47:51.109Z,0.70
2022-10-10T08:50:37.613Z,0.40
2022-10-10T08:53:14.364Z,0.40
2022-10-10T08:55:43.990Z,0.60
2022-10-10T08:58:24.077Z,0.70
2022-10-10T09:01:02.763Z,0.50
2022-10-10T09:03:37.145Z,0.50
2022-10-10T09:06:20.589Z,0.50
2022-10-10T09:08:49.993Z,0.68
2022-10-10T09:11:31.957Z,0.40
2022-10-10T09:14:23.123Z,0.50
2022-10-10T09:17:12.771Z,0.38
2022-10-10T09:20:07.697Z,0.45
2022-10-10T09:22:52.156Z,0.50
2022-10-10T09:25:23.563Z,0.50
2022-10-10T09:28:01.426Z,0.50
2022-10-10T09:30:33.419Z,0.50
2022-10-10T09:33:27.473Z,0.57
2022-10-10T09:35:57.949Z,0.68
2022-10-10T09:38:47.069Z,0.50
2022-10-10T09:41:28.509Z,0.57
2022-10-10T09:43:57.802Z,0.50
2022-10-10T09:46:25.335Z,0.52
2022-10-10T09:48:54.642Z,0.40
2022-10-10T09:51:21.807Z,0.40
2022-10-10T09:53:49.903Z,0.47
2022-10-10T09:56:23.154Z,0.57
2022-10-10T09:58:52.126Z,0.30
2022-10-10T10:01:24.495Z,0.30
2022-10-10T10:04:29.223Z,0.30
2022-10-10T10:07:07.407Z,0.28
2022-10-10T10:09:34.591Z,0.38
2022-10-10T10:12:01.438Z,0.30
2022-10-10T10:14:36.808Z,0.17
2022-10-10T10:17:23.878Z,0.32
2022-10-10T10:19:51.232Z,0.30
2022-10-10T10:22:27.145Z,0.25
2022-10-10T10:24:55.030Z,0.40
2022-10-10T10:27:24.966Z,0.40
2022-10-10T10:29:54.571Z,0.22
2022-10-10T10:32:42.965Z,0.13
2022-10-10T10:35:33.815Z,0.30
2022-10-10T10:38:03.666Z,0.20
2022-10-10T10:40:33.312Z,0.30
2022-10-10T10:43:24.782Z,0.30
2022-10-10T10:46:08.777Z,0.20
2022-10-10T10:48:44.352Z,0.20
2022-10-10T10:51:22.477Z,0.52
2022-10-10T10:54:09.520Z,0.20
2022-10-10T10:56:47.532Z,0.30
2022-10-10T11:00:26.071Z,0.30
2022-10-10T11:02:59.676Z,0.10
2022-10-10T11:05:43.407Z,0.28
2022-10-10T15:25:20.213Z,1.70
2022-10-10T15:27:47.296Z,1.80
2022-10-10T15:30:14.680Z,2.00
2022-10-10T15:32:42.380Z,3.20
2022-10-10T15:35:16.009Z,2.28
2022-10-10T15:37:43.444Z,2.70
2022-10-10T15:40:12.305Z,2.30
2022-10-10T15:42:39.469Z,2.17
2022-10-10T15:45:07.104Z,2.45
2022-10-10T15:47:34.392Z,1.88
2022-10-10T15:50:01.677Z,1.83
2022-10-10T15:52:28.745Z,2.72
2022-10-10T15:54:55.895Z,2.13
2022-10-10T15:57:23.189Z,2.97
2022-10-10T15:59:50.468Z,5.90
2022-10-10T16:02:17.902Z,12.45
2022-10-10T16:04:45.888Z,9.50
2022-10-10T16:07:28.224Z,7.15
2022-10-10T16:09:59.133Z,4.55
2022-10-10T16:12:26.701Z,3.13
2022-10-10T16:14:54.289Z,7.03
2022-10-10T16:17:23.633Z,12.40
2022-10-10T16:19:51.572Z,11.10
2022-10-10T16:22:19.384Z,8.90
2022-10-10T16:24:58.387Z,4.57
2022-10-10T16:27:36.610Z,3.80
2022-10-10T16:30:04.314Z,3.55
2022-10-10T16:32:32.400Z,4.00
2022-10-10T16:34:59.851Z,6.43
2022-10-10T16:37:27.286Z,11.48
2022-10-10T16:39:54.505Z,7.15
2022-10-10T16:42:21.795Z,8.50
2022-10-10T16:44:48.679Z,8.05
2022-10-10T16:47:15.909Z,4.95
2022-10-10T16:49:43.155Z,4.88
2022-10-10T16:52:10.424Z,6.35
2022-10-10T16:54:37.568Z,4.20
2022-10-10T16:57:04.890Z,4.20
2022-10-10T16:59:32.605Z,3.40
2022-10-10T17:01:59.897Z,3.13
2022-10-10T17:04:26.958Z,2.95
2022-10-10T17:06:54.164Z,3.47
2022-10-10T17:09:22.955Z,4.93
2022-10-10T17:11:51.456Z,5.43
2022-10-10T17:14:19.178Z,5.75
2022-10-10T17:17:11.162Z,4.88
2022-10-10T17:19:33.914Z,3.10
2022-10-10T17:22:01.220Z,2.45
2022-10-10T17:24:28.570Z,2.40
2022-10-10T17:26:55.683Z,1.92
2022-10-10T17:29:23.815Z,3.03
2022-10-10T17:31:51.044Z,3.92
2022-10-10T17:34:18.092Z,5.53
2022-10-10T17:36:44.978Z,7.18
2022-10-10T17:39:11.816Z,6.63
2022-10-10T17:41:38.781Z,7.88
2022-10-10T17:44:10.526Z,7.85
2022-10-10T17:46:38.552Z,8.65
2022-10-10T17:49:08.156Z,9.00
2022-10-10T17:51:36.320Z,8.88
2022-10-10T17:54:05.957Z,8.85
2022-10-10T17:56:33.152Z,9.20
2022-10-10T17:59:01.786Z,9.65
2022-10-10T18:01:30.971Z,10.98
2022-10-10T18:03:58.574Z,13.32
2022-10-10T18:06:26.115Z,12.05
2022-10-10T18:08:54.089Z,9.73
2022-10-10T18:11:23.789Z,10.30
2022-10-10T18:13:51.027Z,10.90
2022-10-10T18:16:20.488Z,8.45
2022-10-10T18:18:51.396Z,7.13
2022-10-10T18:21:22.029Z,6.95
2022-10-10T18:23:49.978Z,6.38
2022-10-10T18:26:20.140Z,7.93
2022-10-10T18:28:47.446Z,7.75
2022-10-10T18:31:20.230Z,9.10
2022-10-10T18:33:47.757Z,8.57
2022-10-10T18:36:17.390Z,8.18
2022-10-10T18:38:44.461Z,8.57
2022-10-10T18:41:17.102Z,7.85
2022-10-10T18:43:44.816Z,8.73
2022-10-10T18:46:14.338Z,6.90
2022-10-10T18:48:41.752Z,5.65
2022-10-10T18:51:09.822Z,4.32
2022-10-10T18:53:38.958Z,3.28
2022-10-10T18:56:06.884Z,3.75
2022-10-10T18:58:36.273Z,4.38
2022-10-10T19:01:09.760Z,6.07
2022-10-10T19:03:38.014Z,6.78
2022-10-10T19:06:06.833Z,6.00
2022-10-10T19:08:34.744Z,6.88
2022-10-10T19:11:02.697Z,5.93
2022-10-10T20:15:45.976Z,3.95
2022-10-10T20:18:13.343Z,3.00
2022-10-10T20:20:44.892Z,2.35
2022-10-10T20:23:12.939Z,2.65
2022-10-10T20:25:41.877Z,3.80
2022-10-10T20:28:09.706Z,3.85
2022-10-10T20:30:44.269Z,3.10
2022-10-10T20:33:11.406Z,2.25
2022-10-10T20:35:38.410Z,2.08
2022-10-10T20:38:05.238Z,2.55
2022-10-10T20:40:32.404Z,2.97
2022-10-10T20:42:59.127Z,4.03
2022-10-10T20:45:26.003Z,6.00
2022-10-10T20:47:52.800Z,7.03
2022-10-10T20:50:19.814Z,6.57
2022-10-10T20:52:46.771Z,7.10
2022-10-10T20:55:13.750Z,6.05
2022-10-10T20:57:40.648Z,5.80
2022-10-10T21:00:08.184Z,5.75
2022-10-10T21:02:35.091Z,5.38
2022-10-10T21:05:01.883Z,4.25
2022-10-10T21:07:29.238Z,5.75
2022-10-10T21:09:56.215Z,6.10
2022-10-10T21:12:23.037Z,4.43
2022-10-10T21:14:49.890Z,4.95
2022-10-10T21:17:16.724Z,5.13
2022-10-10T21:19:43.707Z,5.47
2022-10-10T21:22:10.616Z,5.15
2022-10-10T21:24:37.438Z,4.78
2022-10-10T21:27:04.410Z,5.05
2022-10-10T21:29:31.491Z,4.30
2022-10-10T21:31:58.306Z,4.88
2022-10-10T21:34:25.107Z,5.20
2022-10-10T21:36:52.067Z,5.15
2022-10-10T21:39:18.910Z,4.38
2022-10-10T21:41:45.861Z,4.35
2022-10-10T21:44:14.499Z,4.38
2022-10-10T21:46:41.396Z,4.60
2022-10-10T21:49:11.274Z,5.80
2022-10-10T21:51:40.271Z,5.63
2022-10-10T21:54:07.719Z,4.60
2022-10-10T21:56:35.237Z,4.45
2022-10-10T21:59:02.383Z,4.53
2022-10-10T22:01:32.937Z,3.90
2022-10-10T22:04:01.395Z,4.22
2022-10-10T22:06:28.870Z,4.13
2022-10-10T22:08:58.373Z,3.33
2022-10-10T22:11:27.780Z,3.25
2022-10-10T22:13:54.731Z,7.25
2022-10-10T22:16:22.069Z,8.52
2022-10-10T22:18:53.369Z,4.90
2022-10-10T22:21:20.673Z,4.32
2022-10-10T22:23:47.468Z,4.47
2022-10-10T22:26:16.806Z,5.03
2022-10-10T22:28:44.972Z,3.50
2022-10-10T22:31:14.783Z,4.15
2022-10-10T22:33:42.399Z,4.40
2022-10-10T22:36:09.895Z,3.88
2022-10-10T22:38:42.424Z,3.95
2022-10-10T22:41:10.065Z,3.65
2022-10-10T22:43:37.209Z,3.17
2022-10-10T22:46:04.877Z,2.67
2022-10-10T22:48:32.155Z,3.03
2022-10-10T22:51:05.576Z,3.13
2022-10-10T22:53:32.815Z,2.97
2022-10-10T22:55:59.581Z,2.65
2022-10-10T22:58:26.945Z,2.25
2022-10-10T23:00:54.085Z,2.67
2022-10-10T23:03:20.911Z,1.95
2022-10-10T23:05:47.747Z,2.33
2022-10-10T23:08:14.618Z,2.10
2022-10-10T23:10:41.599Z,2.67
2022-10-10T23:13:08.366Z,2.40
2022-10-10T23:15:35.209Z,1.98
2022-10-10T23:18:02.020Z,1.63
2022-10-10T23:20:29.019Z,1.90
2022-10-10T23:22:55.929Z,1.90
2022-10-10T23:25:23.131Z,2.17
2022-10-10T23:27:50.600Z,1.60
2022-10-10T23:30:17.781Z,1.67
2022-10-10T23:32:44.602Z,1.75
2022-10-10T23:35:11.821Z,2.00
2022-10-10T23:37:38.582Z,2.22
2022-10-10T23:40:06.230Z,2.08
2022-10-10T23:42:33.182Z,1.83
2022-10-10T23:45:00.010Z,2.10
2022-10-10T23:47:26.754Z,2.35
2022-10-10T23:49:53.696Z,1.88
2022-10-10T23:52:20.551Z,2.22
2022-10-10T23:54:47.280Z,1.92
2022-10-10T23:57:14.064Z,1.55
2022-10-10T23:59:40.846Z,1.50
